sensor_id;sensor_type;location;lat;lon;timestamp;temperature;humidity
20125;DHT22;10223;50.862;4.360;2023-04-28T00:00:07;12.20;99.90
20125;DHT22;10223;50.862;4.360;2023-04-28T00:02:34;12.00;99.90
20125;DHT22;10223;50.862;4.360;2023-04-28T00:05:01;11.80;99.90
20125;DHT22;10223;50.862;4.360;2023-04-28T00:07:28;11.50;99.90
20125;DHT22;10223;50.862;4.360;2023-04-28T00:09:55;11.10;99.90
20125;DHT22;10223;50.862;4.360;2023-04-28T00:12:22;10.90;99.90
20125;DHT22;10223;50.862;4.360;2023-04-28T00:14:50;10.70;99.90
20125;DHT22;10223;50.862;4.360;2023-04-28T00:17:17;10.60;99.90
20125;DHT22;10223;50.862;4.360;2023-04-28T00:19:44;10.60;99.90
20125;DHT22;10223;50.862;4.360;2023-04-28T00:22:11;10.60;99.90
20125;DHT22;10223;50.862;4.360;2023-04-28T00:24:37;10.60;99.90
20125;DHT22;10223;50.862;4.360;2023-04-28T00:27:06;10.50;99.90
20125;DHT22;10223;50.862;4.360;2023-04-28T00:29:33;10.50;99.90
20125;DHT22;10223;50.862;4.360;2023-04-28T00:32:01;10.50;99.90
20125;DHT22;10223;50.862;4.360;2023-04-28T00:34:31;10.40;99.90
20125;DHT22;10223;50.862;4.360;2023-04-28T00:36:58;10.60;99.90
20125;DHT22;10223;50.862;4.360;2023-04-28T00:39:25;10.70;99.90
20125;DHT22;10223;50.862;4.360;2023-04-28T00:41:52;10.80;99.90
20125;DHT22;10223;50.862;4.360;2023-04-28T00:44:19;11.00;99.90
20125;DHT22;10223;50.862;4.360;2023-04-28T00:46:46;11.10;99.90
20125;DHT22;10223;50.862;4.360;2023-04-28T00:49:15;11.20;99.90
20125;DHT22;10223;50.862;4.360;2023-04-28T00:51:42;11.40;99.90
20125;DHT22;10223;50.862;4.360;2023-04-28T00:54:12;11.50;99.90
20125;DHT22;10223;50.862;4.360;2023-04-28T00:56:39;11.60;99.90
20125;DHT22;10223;50.862;4.360;2023-04-28T00:59:06;11.60;99.90
20125;DHT22;10223;50.862;4.360;2023-04-28T01:01:34;11.80;99.90
20125;DHT22;10223;50.862;4.360;2023-04-28T01:04:01;11.60;99.90
20125;DHT22;10223;50.862;4.360;2023-04-28T01:06:29;11.80;99.90
20125;DHT22;10223;50.862;4.360;2023-04-28T01:08:57;11.80;99.90
20125;DHT22;10223;50.862;4.360;2023-04-28T01:11:24;11.80;99.90
20125;DHT22;10223;50.862;4.360;2023-04-28T01:13:51;11.90;99.90
20125;DHT22;10223;50.862;4.360;2023-04-28T01:16:18;11.90;99.90
20125;DHT22;10223;50.862;4.360;2023-04-28T01:18:46;11.80;99.90
20125;DHT22;10223;50.862;4.360;2023-04-28T01:21:13;12.00;99.90
20125;DHT22;10223;50.862;4.360;2023-04-28T01:23:48;12.10;99.90
20125;DHT22;10223;50.862;4.360;2023-04-28T01:26:15;12.20;99.90
20125;DHT22;10223;50.862;4.360;2023-04-28T01:28:42;12.00;99.90
20125;DHT22;10223;50.862;4.360;2023-04-28T01:31:09;12.00;99.90
20125;DHT22;10223;50.862;4.360;2023-04-28T01:33:36;12.10;99.90
20125;DHT22;10223;50.862;4.360;2023-04-28T01:36:03;12.10;99.90
20125;DHT22;10223;50.862;4.360;2023-04-28T01:38:30;12.20;99.90
20125;DHT22;10223;50.862;4.360;2023-04-28T01:40:58;12.20;99.90
20125;DHT22;10223;50.862;4.360;2023-04-28T01:43:27;12.10;99.90
20125;DHT22;10223;50.862;4.360;2023-04-28T01:45:54;12.00;99.90
20125;DHT22;10223;50.862;4.360;2023-04-28T01:48:20;11.80;99.90
20125;DHT22;10223;50.862;4.360;2023-04-28T01:50:47;11.70;99.90
20125;DHT22;10223;50.862;4.360;2023-04-28T01:53:14;11.60;99.90
20125;DHT22;10223;50.862;4.360;2023-04-28T01:55:45;11.60;99.90
20125;DHT22;10223;50.862;4.360;2023-04-28T01:58:13;11.60;99.90
20125;DHT22;10223;50.862;4.360;2023-04-28T02:00:40;11.70;99.90
20125;DHT22;10223;50.862;4.360;2023-04-28T02:03:07;11.70;99.90
20125;DHT22;10223;50.862;4.360;2023-04-28T02:05:34;11.50;99.90
20125;DHT22;10223;50.862;4.360;2023-04-28T02:08:00;11.00;99.90
20125;DHT22;10223;50.862;4.360;2023-04-28T02:10:27;10.50;99.90
20125;DHT22;10223;50.862;4.360;2023-04-28T02:12:54;10.20;99.90
20125;DHT22;10223;50.862;4.360;2023-04-28T02:15:23;10.00;99.90
20125;DHT22;10223;50.862;4.360;2023-04-28T02:17:49;10.10;99.90
20125;DHT22;10223;50.862;4.360;2023-04-28T02:20:17;10.00;99.90
20125;DHT22;10223;50.862;4.360;2023-04-28T02:22:43;10.00;99.90
20125;DHT22;10223;50.862;4.360;2023-04-28T02:25:10;10.00;99.90
20125;DHT22;10223;50.862;4.360;2023-04-28T02:27:37;10.00;99.90
20125;DHT22;10223;50.862;4.360;2023-04-28T02:30:05;10.10;99.90
20125;DHT22;10223;50.862;4.360;2023-04-28T02:32:34;10.10;99.90
20125;DHT22;10223;50.862;4.360;2023-04-28T02:35:00;10.20;99.90
20125;DHT22;10223;50.862;4.360;2023-04-28T02:37:27;10.20;99.90
20125;DHT22;10223;50.862;4.360;2023-04-28T02:39:54;10.30;99.90
20125;DHT22;10223;50.862;4.360;2023-04-28T02:42:21;10.50;99.90
20125;DHT22;10223;50.862;4.360;2023-04-28T02:44:48;10.60;99.90
20125;DHT22;10223;50.862;4.360;2023-04-28T02:47:15;10.90;99.90
20125;DHT22;10223;50.862;4.360;2023-04-28T02:49:44;10.90;99.90
20125;DHT22;10223;50.862;4.360;2023-04-28T02:52:11;11.00;99.90
20125;DHT22;10223;50.862;4.360;2023-04-28T02:54:38;11.10;99.90
20125;DHT22;10223;50.862;4.360;2023-04-28T02:57:05;11.00;99.90
20125;DHT22;10223;50.862;4.360;2023-04-28T02:59:32;11.10;99.90
20125;DHT22;10223;50.862;4.360;2023-04-28T03:01:59;11.10;99.90
20125;DHT22;10223;50.862;4.360;2023-04-28T03:04:26;11.00;99.90
20125;DHT22;10223;50.862;4.360;2023-04-28T03:06:55;11.20;99.90
20125;DHT22;10223;50.862;4.360;2023-04-28T03:09:21;11.20;99.90
20125;DHT22;10223;50.862;4.360;2023-04-28T03:11:48;11.20;99.90
20125;DHT22;10223;50.862;4.360;2023-04-28T03:14:15;11.20;99.90
20125;DHT22;10223;50.862;4.360;2023-04-28T03:16:42;11.30;99.90
20125;DHT22;10223;50.862;4.360;2023-04-28T03:19:09;11.40;99.90
20125;DHT22;10223;50.862;4.360;2023-04-28T03:21:36;11.30;99.90
20125;DHT22;10223;50.862;4.360;2023-04-28T03:24:05;11.30;99.90
20125;DHT22;10223;50.862;4.360;2023-04-28T03:26:32;11.30;99.90
20125;DHT22;10223;50.862;4.360;2023-04-28T03:28:59;11.30;99.90
20125;DHT22;10223;50.862;4.360;2023-04-28T03:31:26;11.40;99.90
20125;DHT22;10223;50.862;4.360;2023-04-28T03:33:53;11.50;99.90
20125;DHT22;10223;50.862;4.360;2023-04-28T03:36:20;11.50;99.90
20125;DHT22;10223;50.862;4.360;2023-04-28T03:38:46;11.60;99.90
20125;DHT22;10223;50.862;4.360;2023-04-28T03:41:15;11.60;99.90
20125;DHT22;10223;50.862;4.360;2023-04-28T03:43:42;11.50;99.90
20125;DHT22;10223;50.862;4.360;2023-04-28T03:46:08;11.50;99.90
20125;DHT22;10223;50.862;4.360;2023-04-28T03:48:35;11.50;99.90
20125;DHT22;10223;50.862;4.360;2023-04-28T03:51:03;11.40;99.90
20125;DHT22;10223;50.862;4.360;2023-04-28T03:53:29;11.40;99.90
20125;DHT22;10223;50.862;4.360;2023-04-28T03:55:56;11.30;99.90
20125;DHT22;10223;50.862;4.360;2023-04-28T03:58:24;11.20;99.90
20125;DHT22;10223;50.862;4.360;2023-04-28T04:00:52;11.20;99.90
20125;DHT22;10223;50.862;4.360;2023-04-28T04:03:19;11.30;99.90
20125;DHT22;10223;50.862;4.360;2023-04-28T04:05:50;11.30;99.90
20125;DHT22;10223;50.862;4.360;2023-04-28T04:08:16;11.30;99.90
20125;DHT22;10223;50.862;4.360;2023-04-28T04:10:43;11.40;99.90
20125;DHT22;10223;50.862;4.360;2023-04-28T04:13:10;11.40;99.90
20125;DHT22;10223;50.862;4.360;2023-04-28T04:15:38;11.40;99.90
20125;DHT22;10223;50.862;4.360;2023-04-28T04:18:05;11.40;99.90
20125;DHT22;10223;50.862;4.360;2023-04-28T04:20:32;11.60;99.90
20125;DHT22;10223;50.862;4.360;2023-04-28T04:22:59;11.60;99.90
20125;DHT22;10223;50.862;4.360;2023-04-28T04:25:26;11.70;99.90
20125;DHT22;10223;50.862;4.360;2023-04-28T04:27:52;11.60;99.90
20125;DHT22;10223;50.862;4.360;2023-04-28T04:30:20;11.60;99.90
20125;DHT22;10223;50.862;4.360;2023-04-28T04:32:48;11.60;99.90
20125;DHT22;10223;50.862;4.360;2023-04-28T04:35:15;11.70;99.90
20125;DHT22;10223;50.862;4.360;2023-04-28T04:37:43;11.60;99.90
20125;DHT22;10223;50.862;4.360;2023-04-28T04:40:10;11.70;99.90
20125;DHT22;10223;50.862;4.360;2023-04-28T04:42:37;11.70;99.90
20125;DHT22;10223;50.862;4.360;2023-04-28T04:45:05;11.70;99.90
20125;DHT22;10223;50.862;4.360;2023-04-28T04:47:32;11.80;99.90
20125;DHT22;10223;50.862;4.360;2023-04-28T04:50:01;11.90;99.90
20125;DHT22;10223;50.862;4.360;2023-04-28T04:52:27;11.90;99.90
20125;DHT22;10223;50.862;4.360;2023-04-28T04:54:54;11.90;99.90
20125;DHT22;10223;50.862;4.360;2023-04-28T04:57:21;12.10;99.90
20125;DHT22;10223;50.862;4.360;2023-04-28T04:59:48;12.10;99.90
20125;DHT22;10223;50.862;4.360;2023-04-28T05:02:16;12.10;99.90
20125;DHT22;10223;50.862;4.360;2023-04-28T05:04:43;12.00;99.90
20125;DHT22;10223;50.862;4.360;2023-04-28T05:07:11;12.10;99.90
20125;DHT22;10223;50.862;4.360;2023-04-28T05:09:38;12.10;99.90
20125;DHT22;10223;50.862;4.360;2023-04-28T05:12:05;12.20;99.90
20125;DHT22;10223;50.862;4.360;2023-04-28T05:14:32;12.10;99.90
20125;DHT22;10223;50.862;4.360;2023-04-28T05:16:59;12.00;99.90
20125;DHT22;10223;50.862;4.360;2023-04-28T05:19:26;11.90;99.90
20125;DHT22;10223;50.862;4.360;2023-04-28T05:21:53;12.10;99.90
20125;DHT22;10223;50.862;4.360;2023-04-28T05:24:21;12.00;99.90
20125;DHT22;10223;50.862;4.360;2023-04-28T05:26:49;12.20;99.90
20125;DHT22;10223;50.862;4.360;2023-04-28T05:29:16;12.20;99.90
20125;DHT22;10223;50.862;4.360;2023-04-28T05:31:43;12.20;99.90
20125;DHT22;10223;50.862;4.360;2023-04-28T05:34:10;12.20;99.90
20125;DHT22;10223;50.862;4.360;2023-04-28T05:36:36;12.30;99.90
20125;DHT22;10223;50.862;4.360;2023-04-28T05:39:03;12.10;99.90
20125;DHT22;10223;50.862;4.360;2023-04-28T05:41:34;12.30;99.90
20125;DHT22;10223;50.862;4.360;2023-04-28T05:44:01;12.20;99.90
20125;DHT22;10223;50.862;4.360;2023-04-28T05:46:28;12.20;99.90
20125;DHT22;10223;50.862;4.360;2023-04-28T05:48:54;12.20;99.90
20125;DHT22;10223;50.862;4.360;2023-04-28T05:51:21;12.30;99.90
20125;DHT22;10223;50.862;4.360;2023-04-28T05:53:48;12.30;99.90
20125;DHT22;10223;50.862;4.360;2023-04-28T05:56:15;12.50;99.90
20125;DHT22;10223;50.862;4.360;2023-04-28T05:58:44;12.50;99.90
20125;DHT22;10223;50.862;4.360;2023-04-28T06:01:11;12.70;99.90
20125;DHT22;10223;50.862;4.360;2023-04-28T06:03:38;12.70;99.90
20125;DHT22;10223;50.862;4.360;2023-04-28T06:06:06;12.90;99.90
20125;DHT22;10223;50.862;4.360;2023-04-28T06:08:33;12.80;99.90
20125;DHT22;10223;50.862;4.360;2023-04-28T06:11:00;12.90;99.90
20125;DHT22;10223;50.862;4.360;2023-04-28T06:13:27;13.10;99.90
20125;DHT22;10223;50.862;4.360;2023-04-28T06:15:55;13.10;99.90
20125;DHT22;10223;50.862;4.360;2023-04-28T06:18:22;13.10;99.90
20125;DHT22;10223;50.862;4.360;2023-04-28T06:20:53;13.20;99.90
20125;DHT22;10223;50.862;4.360;2023-04-28T06:23:20;13.20;99.90
20125;DHT22;10223;50.862;4.360;2023-04-28T06:25:47;13.30;99.90
20125;DHT22;10223;50.862;4.360;2023-04-28T06:28:14;13.40;99.90
20125;DHT22;10223;50.862;4.360;2023-04-28T06:30:41;13.40;99.90
20125;DHT22;10223;50.862;4.360;2023-04-28T06:33:09;13.50;99.90
20125;DHT22;10223;50.862;4.360;2023-04-28T06:35:36;13.50;99.90
20125;DHT22;10223;50.862;4.360;2023-04-28T06:38:04;13.50;99.90
20125;DHT22;10223;50.862;4.360;2023-04-28T06:40:31;13.50;99.90
20125;DHT22;10223;50.862;4.360;2023-04-28T06:42:58;13.60;99.90
20125;DHT22;10223;50.862;4.360;2023-04-28T06:45:25;13.60;99.90
20125;DHT22;10223;50.862;4.360;2023-04-28T06:47:52;13.60;99.90
20125;DHT22;10223;50.862;4.360;2023-04-28T06:50:22;13.70;99.90
20125;DHT22;10223;50.862;4.360;2023-04-28T06:52:49;13.70;99.90
20125;DHT22;10223;50.862;4.360;2023-04-28T06:55:16;13.80;99.90
20125;DHT22;10223;50.862;4.360;2023-04-28T06:57:43;13.80;99.90
20125;DHT22;10223;50.862;4.360;2023-04-28T07:00:11;13.80;99.90
20125;DHT22;10223;50.862;4.360;2023-04-28T07:02:38;13.80;99.90
20125;DHT22;10223;50.862;4.360;2023-04-28T07:05:06;13.80;99.90
20125;DHT22;10223;50.862;4.360;2023-04-28T07:07:36;13.80;99.90
20125;DHT22;10223;50.862;4.360;2023-04-28T07:10:04;13.90;99.90
20125;DHT22;10223;50.862;4.360;2023-04-28T07:12:31;13.90;99.90
20125;DHT22;10223;50.862;4.360;2023-04-28T07:14:58;13.90;99.90
20125;DHT22;10223;50.862;4.360;2023-04-28T07:17:25;13.90;99.90
20125;DHT22;10223;50.862;4.360;2023-04-28T07:19:52;14.00;99.90
20125;DHT22;10223;50.862;4.360;2023-04-28T07:22:19;14.00;99.90
20125;DHT22;10223;50.862;4.360;2023-04-28T07:24:47;14.00;99.90
20125;DHT22;10223;50.862;4.360;2023-04-28T07:27:14;14.00;99.90
20125;DHT22;10223;50.862;4.360;2023-04-28T07:29:41;14.00;99.90
20125;DHT22;10223;50.862;4.360;2023-04-28T07:32:08;14.00;99.90
20125;DHT22;10223;50.862;4.360;2023-04-28T07:34:36;14.10;99.90
20125;DHT22;10223;50.862;4.360;2023-04-28T07:37:03;14.20;99.90
20125;DHT22;10223;50.862;4.360;2023-04-28T07:39:30;14.30;99.90
20125;DHT22;10223;50.862;4.360;2023-04-28T07:42:00;14.40;99.90
20125;DHT22;10223;50.862;4.360;2023-04-28T07:44:27;14.60;99.90
20125;DHT22;10223;50.862;4.360;2023-04-28T07:46:57;14.80;99.90
20125;DHT22;10223;50.862;4.360;2023-04-28T07:49:25;15.00;99.90
20125;DHT22;10223;50.862;4.360;2023-04-28T07:51:52;15.30;99.90
20125;DHT22;10223;50.862;4.360;2023-04-28T07:54:20;15.60;99.90
20125;DHT22;10223;50.862;4.360;2023-04-28T07:56:47;15.50;99.90
20125;DHT22;10223;50.862;4.360;2023-04-28T07:59:15;15.50;99.90
20125;DHT22;10223;50.862;4.360;2023-04-28T08:01:42;15.50;99.90
20125;DHT22;10223;50.862;4.360;2023-04-28T08:04:09;15.50;99.90
20125;DHT22;10223;50.862;4.360;2023-04-28T08:06:37;15.40;99.90
20125;DHT22;10223;50.862;4.360;2023-04-28T08:09:04;15.30;99.90
20125;DHT22;10223;50.862;4.360;2023-04-28T08:11:31;15.30;99.90
20125;DHT22;10223;50.862;4.360;2023-04-28T08:13:59;15.30;99.90
20125;DHT22;10223;50.862;4.360;2023-04-28T08:16:29;15.30;99.90
20125;DHT22;10223;50.862;4.360;2023-04-28T08:18:56;15.20;99.90
20125;DHT22;10223;50.862;4.360;2023-04-28T08:21:26;15.20;99.90
20125;DHT22;10223;50.862;4.360;2023-04-28T08:23:53;15.30;99.90
20125;DHT22;10223;50.862;4.360;2023-04-28T08:26:20;15.30;99.90
20125;DHT22;10223;50.862;4.360;2023-04-28T08:28:49;15.40;99.90
20125;DHT22;10223;50.862;4.360;2023-04-28T08:31:16;15.40;99.90
20125;DHT22;10223;50.862;4.360;2023-04-28T08:33:44;15.40;99.90
20125;DHT22;10223;50.862;4.360;2023-04-28T08:36:14;15.40;99.90
20125;DHT22;10223;50.862;4.360;2023-04-28T08:38:43;15.30;99.90
20125;DHT22;10223;50.862;4.360;2023-04-28T08:41:11;15.30;99.90
20125;DHT22;10223;50.862;4.360;2023-04-28T08:43:39;15.30;99.90
20125;DHT22;10223;50.862;4.360;2023-04-28T08:46:08;15.30;99.90
20125;DHT22;10223;50.862;4.360;2023-04-28T08:48:39;15.30;99.90
20125;DHT22;10223;50.862;4.360;2023-04-28T08:51:08;15.30;99.90
20125;DHT22;10223;50.862;4.360;2023-04-28T08:53:38;15.40;99.90
20125;DHT22;10223;50.862;4.360;2023-04-28T08:56:05;15.40;99.90
20125;DHT22;10223;50.862;4.360;2023-04-28T08:58:35;15.30;99.90
20125;DHT22;10223;50.862;4.360;2023-04-28T09:01:02;15.30;99.90
20125;DHT22;10223;50.862;4.360;2023-04-28T09:03:30;15.40;99.90
20125;DHT22;10223;50.862;4.360;2023-04-28T09:05:57;15.40;99.90
20125;DHT22;10223;50.862;4.360;2023-04-28T09:08:26;15.40;99.90
20125;DHT22;10223;50.862;4.360;2023-04-28T09:11:06;15.50;99.90
20125;DHT22;10223;50.862;4.360;2023-04-28T09:13:34;15.60;99.90
20125;DHT22;10223;50.862;4.360;2023-04-28T09:16:02;15.70;99.90
20125;DHT22;10223;50.862;4.360;2023-04-28T09:18:29;15.70;99.90
20125;DHT22;10223;50.862;4.360;2023-04-28T09:21:05;15.90;99.90
20125;DHT22;10223;50.862;4.360;2023-04-28T09:23:33;16.00;99.90
20125;DHT22;10223;50.862;4.360;2023-04-28T09:26:02;16.00;99.90
20125;DHT22;10223;50.862;4.360;2023-04-28T09:28:29;16.30;99.90
20125;DHT22;10223;50.862;4.360;2023-04-28T09:30:56;16.30;99.90
20125;DHT22;10223;50.862;4.360;2023-04-28T09:33:23;16.30;99.90
20125;DHT22;10223;50.862;4.360;2023-04-28T09:35:51;16.30;99.90
20125;DHT22;10223;50.862;4.360;2023-04-28T09:38:18;16.30;99.90
20125;DHT22;10223;50.862;4.360;2023-04-28T09:40:53;16.30;99.90
20125;DHT22;10223;50.862;4.360;2023-04-28T09:43:29;16.50;99.90
20125;DHT22;10223;50.862;4.360;2023-04-28T09:45:57;16.50;99.90
20125;DHT22;10223;50.862;4.360;2023-04-28T09:48:32;16.40;99.90
20125;DHT22;10223;50.862;4.360;2023-04-28T09:51:00;16.50;99.90
20125;DHT22;10223;50.862;4.360;2023-04-28T09:53:28;16.60;99.90
20125;DHT22;10223;50.862;4.360;2023-04-28T09:55:57;16.60;99.90
20125;DHT22;10223;50.862;4.360;2023-04-28T09:58:26;16.70;99.90
20125;DHT22;10223;50.862;4.360;2023-04-28T10:00:54;17.00;99.90
20125;DHT22;10223;50.862;4.360;2023-04-28T10:03:23;17.10;99.90
20125;DHT22;10223;50.862;4.360;2023-04-28T10:05:51;17.20;99.90
20125;DHT22;10223;50.862;4.360;2023-04-28T10:08:19;17.30;99.90
20125;DHT22;10223;50.862;4.360;2023-04-28T10:10:48;17.10;99.90
20125;DHT22;10223;50.862;4.360;2023-04-28T10:13:19;17.20;99.90
20125;DHT22;10223;50.862;4.360;2023-04-28T10:15:47;17.10;99.90
20125;DHT22;10223;50.862;4.360;2023-04-28T10:18:14;17.10;99.90
20125;DHT22;10223;50.862;4.360;2023-04-28T10:20:44;17.20;99.90
20125;DHT22;10223;50.862;4.360;2023-04-28T10:26:18;16.90;99.90
20125;DHT22;10223;50.862;4.360;2023-04-28T10:28:49;16.90;99.90
20125;DHT22;10223;50.862;4.360;2023-04-28T10:31:17;16.70;99.90
20125;DHT22;10223;50.862;4.360;2023-04-28T10:33:46;16.60;99.90
20125;DHT22;10223;50.862;4.360;2023-04-28T10:36:46;16.50;99.90
20125;DHT22;10223;50.862;4.360;2023-04-28T10:39:13;16.50;99.90
20125;DHT22;10223;50.862;4.360;2023-04-28T10:41:41;16.50;99.90
20125;DHT22;10223;50.862;4.360;2023-04-28T10:44:43;16.50;99.90
20125;DHT22;10223;50.862;4.360;2023-04-28T10:47:10;16.50;99.90
20125;DHT22;10223;50.862;4.360;2023-04-28T10:50:06;16.40;99.90
20125;DHT22;10223;50.862;4.360;2023-04-28T10:52:49;16.40;99.90
20125;DHT22;10223;50.862;4.360;2023-04-28T10:55:26;16.20;99.90
20125;DHT22;10223;50.862;4.360;2023-04-28T11:01:25;16.20;99.90
20125;DHT22;10223;50.862;4.360;2023-04-28T11:03:53;16.20;99.90
20125;DHT22;10223;50.862;4.360;2023-04-28T11:06:28;16.20;99.90
20125;DHT22;10223;50.862;4.360;2023-04-28T11:08:57;16.20;99.90
20125;DHT22;10223;50.862;4.360;2023-04-28T11:11:26;16.10;99.90
20125;DHT22;10223;50.862;4.360;2023-04-28T11:13:54;16.10;99.90
20125;DHT22;10223;50.862;4.360;2023-04-28T11:16:24;16.10;99.90
20125;DHT22;10223;50.862;4.360;2023-04-28T11:21:31;16.00;99.90
20125;DHT22;10223;50.862;4.360;2023-04-28T11:23:59;16.00;99.90
20125;DHT22;10223;50.862;4.360;2023-04-28T11:26:27;16.00;99.90
20125;DHT22;10223;50.862;4.360;2023-04-28T11:28:55;16.00;99.90
20125;DHT22;10223;50.862;4.360;2023-04-28T11:31:25;15.90;99.90
20125;DHT22;10223;50.862;4.360;2023-04-28T11:33:59;15.80;99.90
20125;DHT22;10223;50.862;4.360;2023-04-28T11:36:29;15.80;99.90
20125;DHT22;10223;50.862;4.360;2023-04-28T11:38:57;15.70;99.90
20125;DHT22;10223;50.862;4.360;2023-04-28T11:41:25;15.50;99.90
20125;DHT22;10223;50.862;4.360;2023-04-28T11:43:52;15.50;99.90
20125;DHT22;10223;50.862;4.360;2023-04-28T11:46:20;15.40;99.90
20125;DHT22;10223;50.862;4.360;2023-04-28T11:48:59;15.40;99.90
20125;DHT22;10223;50.862;4.360;2023-04-28T11:51:30;15.40;99.90
20125;DHT22;10223;50.862;4.360;2023-04-28T11:53:58;15.40;99.90
20125;DHT22;10223;50.862;4.360;2023-04-28T11:56:26;15.50;99.90
20125;DHT22;10223;50.862;4.360;2023-04-28T11:58:59;15.50;99.90
20125;DHT22;10223;50.862;4.360;2023-04-28T12:01:27;15.40;99.90
20125;DHT22;10223;50.862;4.360;2023-04-28T12:03:55;15.40;99.90
20125;DHT22;10223;50.862;4.360;2023-04-28T12:06:22;15.50;99.90
20125;DHT22;10223;50.862;4.360;2023-04-28T12:08:49;15.40;99.90
20125;DHT22;10223;50.862;4.360;2023-04-28T12:11:17;15.30;99.90
20125;DHT22;10223;50.862;4.360;2023-04-28T12:14:02;15.20;99.90
20125;DHT22;10223;50.862;4.360;2023-04-28T12:16:37;15.20;99.90
20125;DHT22;10223;50.862;4.360;2023-04-28T12:19:10;15.30;99.90
20125;DHT22;10223;50.862;4.360;2023-04-28T12:21:37;15.40;99.90
20125;DHT22;10223;50.862;4.360;2023-04-28T12:24:18;15.40;99.90
20125;DHT22;10223;50.862;4.360;2023-04-28T12:26:46;15.30;99.90
20125;DHT22;10223;50.862;4.360;2023-04-28T12:29:35;15.30;99.90
20125;DHT22;10223;50.862;4.360;2023-04-28T12:32:04;15.30;99.90
20125;DHT22;10223;50.862;4.360;2023-04-28T12:34:33;15.50;99.90
20125;DHT22;10223;50.862;4.360;2023-04-28T12:37:00;15.50;99.90
20125;DHT22;10223;50.862;4.360;2023-04-28T12:39:30;15.50;99.90
20125;DHT22;10223;50.862;4.360;2023-04-28T12:41:58;15.60;99.90
20125;DHT22;10223;50.862;4.360;2023-04-28T12:44:27;15.70;99.90
20125;DHT22;10223;50.862;4.360;2023-04-28T12:47:00;15.60;99.90
20125;DHT22;10223;50.862;4.360;2023-04-28T12:49:27;15.60;99.90
20125;DHT22;10223;50.862;4.360;2023-04-28T12:51:55;15.50;99.90
20125;DHT22;10223;50.862;4.360;2023-04-28T12:54:22;15.40;99.90
20125;DHT22;10223;50.862;4.360;2023-04-28T12:56:49;15.30;99.90
20125;DHT22;10223;50.862;4.360;2023-04-28T12:59:16;15.20;99.90
20125;DHT22;10223;50.862;4.360;2023-04-28T13:01:43;15.10;99.90
20125;DHT22;10223;50.862;4.360;2023-04-28T13:04:10;15.30;99.90
20125;DHT22;10223;50.862;4.360;2023-04-28T13:06:37;15.30;99.90
20125;DHT22;10223;50.862;4.360;2023-04-28T13:09:06;15.30;99.90
20125;DHT22;10223;50.862;4.360;2023-04-28T13:11:33;15.40;99.90
20125;DHT22;10223;50.862;4.360;2023-04-28T13:14:00;15.40;99.90
20125;DHT22;10223;50.862;4.360;2023-04-28T13:16:28;15.60;99.90
20125;DHT22;10223;50.862;4.360;2023-04-28T13:18:55;15.60;99.90
20125;DHT22;10223;50.862;4.360;2023-04-28T13:21:23;15.60;99.90
20125;DHT22;10223;50.862;4.360;2023-04-28T13:23:51;15.60;99.90
20125;DHT22;10223;50.862;4.360;2023-04-28T13:26:19;15.60;99.90
20125;DHT22;10223;50.862;4.360;2023-04-28T13:28:48;15.50;99.90
20125;DHT22;10223;50.862;4.360;2023-04-28T13:31:16;15.40;99.90
20125;DHT22;10223;50.862;4.360;2023-04-28T13:33:43;15.40;99.90
20125;DHT22;10223;50.862;4.360;2023-04-28T13:36:10;15.40;99.90
20125;DHT22;10223;50.862;4.360;2023-04-28T13:38:37;15.40;99.90
20125;DHT22;10223;50.862;4.360;2023-04-28T13:41:04;15.40;99.90
20125;DHT22;10223;50.862;4.360;2023-04-28T13:43:32;15.40;99.90
20125;DHT22;10223;50.862;4.360;2023-04-28T13:45:59;15.40;99.90
20125;DHT22;10223;50.862;4.360;2023-04-28T13:48:26;15.50;99.90
20125;DHT22;10223;50.862;4.360;2023-04-28T13:50:53;15.50;99.90
20125;DHT22;10223;50.862;4.360;2023-04-28T13:53:20;15.40;99.90
20125;DHT22;10223;50.862;4.360;2023-04-28T13:55:49;15.30;99.90
20125;DHT22;10223;50.862;4.360;2023-04-28T13:58:18;15.40;99.90
20125;DHT22;10223;50.862;4.360;2023-04-28T14:00:46;15.50;99.90
20125;DHT22;10223;50.862;4.360;2023-04-28T14:03:13;15.50;99.90
20125;DHT22;10223;50.862;4.360;2023-04-28T14:05:40;15.50;99.90
20125;DHT22;10223;50.862;4.360;2023-04-28T14:08:08;15.50;99.90
20125;DHT22;10223;50.862;4.360;2023-04-28T14:10:35;15.50;99.90
20125;DHT22;10223;50.862;4.360;2023-04-28T14:13:02;15.60;99.90
20125;DHT22;10223;50.862;4.360;2023-04-28T14:15:29;15.70;99.90
20125;DHT22;10223;50.862;4.360;2023-04-28T14:17:58;15.70;99.90
20125;DHT22;10223;50.862;4.360;2023-04-28T14:20:26;15.70;99.90
20125;DHT22;10223;50.862;4.360;2023-04-28T14:22:53;15.70;99.90
20125;DHT22;10223;50.862;4.360;2023-04-28T14:25:19;15.60;99.90
20125;DHT22;10223;50.862;4.360;2023-04-28T14:27:48;15.60;99.90
20125;DHT22;10223;50.862;4.360;2023-04-28T14:30:14;15.60;99.90
20125;DHT22;10223;50.862;4.360;2023-04-28T14:32:41;15.60;99.90
20125;DHT22;10223;50.862;4.360;2023-04-28T14:35:11;15.60;99.90
20125;DHT22;10223;50.862;4.360;2023-04-28T14:37:38;15.50;99.90
20125;DHT22;10223;50.862;4.360;2023-04-28T14:40:06;15.60;99.90
20125;DHT22;10223;50.862;4.360;2023-04-28T14:42:34;15.60;99.90
20125;DHT22;10223;50.862;4.360;2023-04-28T14:45:02;15.60;99.90
20125;DHT22;10223;50.862;4.360;2023-04-28T14:47:29;15.50;99.90
20125;DHT22;10223;50.862;4.360;2023-04-28T14:49:57;15.50;99.90
20125;DHT22;10223;50.862;4.360;2023-04-28T14:52:25;15.50;99.90
20125;DHT22;10223;50.862;4.360;2023-04-28T14:54:54;15.70;99.90
20125;DHT22;10223;50.862;4.360;2023-04-28T14:57:21;16.00;99.90
20125;DHT22;10223;50.862;4.360;2023-04-28T14:59:48;16.50;99.90
20125;DHT22;10223;50.862;4.360;2023-04-28T15:02:16;16.90;99.90
20125;DHT22;10223;50.862;4.360;2023-04-28T15:04:44;17.00;99.90
20125;DHT22;10223;50.862;4.360;2023-04-28T15:07:11;17.10;99.90
20125;DHT22;10223;50.862;4.360;2023-04-28T15:09:39;17.10;99.90
20125;DHT22;10223;50.862;4.360;2023-04-28T15:12:08;17.00;99.90
20125;DHT22;10223;50.862;4.360;2023-04-28T15:14:34;17.00;99.90
20125;DHT22;10223;50.862;4.360;2023-04-28T15:17:01;17.10;99.90
20125;DHT22;10223;50.862;4.360;2023-04-28T15:19:28;17.20;99.90
20125;DHT22;10223;50.862;4.360;2023-04-28T15:21:55;17.30;99.90
20125;DHT22;10223;50.862;4.360;2023-04-28T15:24:22;17.30;99.90
20125;DHT22;10223;50.862;4.360;2023-04-28T15:26:51;17.10;99.90
20125;DHT22;10223;50.862;4.360;2023-04-28T15:29:18;16.80;99.90
20125;DHT22;10223;50.862;4.360;2023-04-28T15:31:44;16.80;99.90
20125;DHT22;10223;50.862;4.360;2023-04-28T15:34:11;16.70;99.90
20125;DHT22;10223;50.862;4.360;2023-04-28T15:36:39;16.80;99.90
20125;DHT22;10223;50.862;4.360;2023-04-28T15:39:07;17.00;99.90
20125;DHT22;10223;50.862;4.360;2023-04-28T15:41:34;16.90;99.90
20125;DHT22;10223;50.862;4.360;2023-04-28T15:44:03;16.70;99.90